Red Deer, Canada
Current Conditions -  °F | °C
As of 2:00 AM on Saturday 25 Oct 2014 (Local Time) from CYQF Reporting Station
Clear Clear  
Wind Chill: 25°   Ceiling: Unl
Heat Index: 25°   Visibility: 15mi
Dew Point: 23°   Wind: 3mph
Humidity: 93%   Direction: 190°S
Pressure: 30.04"   Gusts: NA
Location:  52.26°N, 113.82°W
Report Text: CYQF 250800Z 19003KT 15SM SKC M04/M05 A3004 RMK SLP207
Loading
Personal Weather Stations






























Interactive Weather Map
Tropical Storm Tracking
New forecast layout! Learn more

10-Day Weather Forecast

Advertisements
Track Severe Weather on mobile